sensor_id;sensor_type;location;lat;lon;timestamp;P1;durP1;ratioP1;P2;durP2;ratioP2
37891;SDS011;45797;47.466;9.486;2022-11-28T00:04:12;9.57;;;4.35;;
37891;SDS011;45797;47.466;9.486;2022-11-28T00:09:27;8.15;;;3.85;;
37891;SDS011;45797;47.466;9.486;2022-11-28T00:14:29;6.57;;;3.83;;
37891;SDS011;45797;47.466;9.486;2022-11-28T00:24:40;8.85;;;4.25;;
37891;SDS011;45797;47.466;9.486;2022-11-28T00:29:41;8.57;;;3.72;;
37891;SDS011;45797;47.466;9.486;2022-11-28T00:34:42;8.63;;;4.00;;
37891;SDS011;45797;47.466;9.486;2022-11-28T00:39:49;9.48;;;4.65;;
37891;SDS011;45797;47.466;9.486;2022-11-28T00:44:49;9.35;;;3.75;;
37891;SDS011;45797;47.466;9.486;2022-11-28T00:49:52;9.95;;;4.00;;
37891;SDS011;45797;47.466;9.486;2022-11-28T00:54:52;9.43;;;4.25;;
37891;SDS011;45797;47.466;9.486;2022-11-28T00:59:52;8.93;;;4.35;;
37891;SDS011;45797;47.466;9.486;2022-11-28T01:04:56;9.60;;;4.45;;
37891;SDS011;45797;47.466;9.486;2022-11-28T01:09:58;8.60;;;4.05;;
37891;SDS011;45797;47.466;9.486;2022-11-28T01:15:06;7.43;;;3.50;;
37891;SDS011;45797;47.466;9.486;2022-11-28T01:35:25;10.30;;;4.15;;
37891;SDS011;45797;47.466;9.486;2022-11-28T01:40:26;9.63;;;3.55;;
37891;SDS011;45797;47.466;9.486;2022-11-28T01:45:28;7.05;;;3.53;;
37891;SDS011;45797;47.466;9.486;2022-11-28T01:50:31;6.38;;;3.40;;
37891;SDS011;45797;47.466;9.486;2022-11-28T01:55:36;6.32;;;3.08;;
37891;SDS011;45797;47.466;9.486;2022-11-28T02:05:53;6.15;;;2.95;;
37891;SDS011;45797;47.466;9.486;2022-11-28T02:49:22;6.55;;;3.42;;
37891;SDS011;45797;47.466;9.486;2022-11-28T02:54:29;11.40;;;3.67;;
37891;SDS011;45797;47.466;9.486;2022-11-28T03:04:43;7.70;;;3.53;;
37891;SDS011;45797;47.466;9.486;2022-11-28T03:09:58;6.13;;;2.90;;
37891;SDS011;45797;47.466;9.486;2022-11-28T03:15:08;5.38;;;2.53;;
37891;SDS011;45797;47.466;9.486;2022-11-28T03:20:20;6.18;;;3.00;;
37891;SDS011;45797;47.466;9.486;2022-11-28T03:30:37;8.65;;;3.83;;
37891;SDS011;45797;47.466;9.486;2022-11-28T03:35:47;6.95;;;3.35;;
37891;SDS011;45797;47.466;9.486;2022-11-28T03:46:07;8.18;;;3.55;;
37891;SDS011;45797;47.466;9.486;2022-11-28T03:51:15;8.98;;;4.03;;
37891;SDS011;45797;47.466;9.486;2022-11-28T04:06:57;6.63;;;3.20;;
37891;SDS011;45797;47.466;9.486;2022-11-28T04:23:09;9.00;;;4.45;;
37891;SDS011;45797;47.466;9.486;2022-11-28T04:28:17;9.82;;;4.25;;
37891;SDS011;45797;47.466;9.486;2022-11-28T04:33:23;7.32;;;3.47;;
37891;SDS011;45797;47.466;9.486;2022-11-28T04:38:26;8.40;;;3.90;;
37891;SDS011;45797;47.466;9.486;2022-11-28T04:43:36;9.38;;;4.13;;
37891;SDS011;45797;47.466;9.486;2022-11-28T04:48:41;8.32;;;3.85;;
37891;SDS011;45797;47.466;9.486;2022-11-28T04:53:45;9.65;;;4.15;;
37891;SDS011;45797;47.466;9.486;2022-11-28T04:58:51;8.00;;;4.32;;
37891;SDS011;45797;47.466;9.486;2022-11-28T05:03:52;7.97;;;3.85;;
37891;SDS011;45797;47.466;9.486;2022-11-28T05:08:53;7.80;;;3.80;;
37891;SDS011;45797;47.466;9.486;2022-11-28T05:19:09;7.30;;;3.80;;
37891;SDS011;45797;47.466;9.486;2022-11-28T05:24:10;7.95;;;3.97;;
37891;SDS011;45797;47.466;9.486;2022-11-28T05:34:29;9.82;;;3.92;;
37891;SDS011;45797;47.466;9.486;2022-11-28T05:39:36;7.68;;;3.83;;
37891;SDS011;45797;47.466;9.486;2022-11-28T05:44:37;7.43;;;3.63;;
37891;SDS011;45797;47.466;9.486;2022-11-28T05:49:51;7.63;;;4.03;;
37891;SDS011;45797;47.466;9.486;2022-11-28T05:55:06;7.65;;;4.05;;
37891;SDS011;45797;47.466;9.486;2022-11-28T06:05:14;9.43;;;3.92;;
37891;SDS011;45797;47.466;9.486;2022-11-28T06:10:14;7.85;;;3.65;;
37891;SDS011;45797;47.466;9.486;2022-11-28T06:15:23;6.60;;;3.40;;
37891;SDS011;45797;47.466;9.486;2022-11-28T06:20:24;7.85;;;3.88;;
37891;SDS011;45797;47.466;9.486;2022-11-28T06:25:24;8.05;;;3.65;;
37891;SDS011;45797;47.466;9.486;2022-11-28T06:35:29;9.60;;;4.25;;
37891;SDS011;45797;47.466;9.486;2022-11-28T06:40:29;12.13;;;3.88;;
37891;SDS011;45797;47.466;9.486;2022-11-28T06:45:30;9.90;;;4.03;;
37891;SDS011;45797;47.466;9.486;2022-11-28T06:50:33;6.63;;;3.38;;
37891;SDS011;45797;47.466;9.486;2022-11-28T06:55:35;8.23;;;3.85;;
37891;SDS011;45797;47.466;9.486;2022-11-28T07:00:36;8.38;;;4.35;;
37891;SDS011;45797;47.466;9.486;2022-11-28T07:05:38;9.10;;;4.20;;
37891;SDS011;45797;47.466;9.486;2022-11-28T07:10:40;8.00;;;3.90;;
37891;SDS011;45797;47.466;9.486;2022-11-28T07:15:51;8.43;;;3.97;;
37891;SDS011;45797;47.466;9.486;2022-11-28T07:20:53;6.97;;;3.58;;
37891;SDS011;45797;47.466;9.486;2022-11-28T07:26:04;8.40;;;4.13;;
37891;SDS011;45797;47.466;9.486;2022-11-28T07:31:06;10.15;;;4.28;;
37891;SDS011;45797;47.466;9.486;2022-11-28T07:36:20;7.78;;;3.75;;
37891;SDS011;45797;47.466;9.486;2022-11-28T07:41:26;7.57;;;3.90;;
37891;SDS011;45797;47.466;9.486;2022-11-28T07:46:29;8.77;;;4.13;;
37891;SDS011;45797;47.466;9.486;2022-11-28T08:01:54;12.60;;;4.75;;
37891;SDS011;45797;47.466;9.486;2022-11-28T08:06:55;9.35;;;4.30;;
37891;SDS011;45797;47.466;9.486;2022-11-28T08:11:58;7.65;;;3.80;;
37891;SDS011;45797;47.466;9.486;2022-11-28T08:17:05;8.57;;;4.47;;
37891;SDS011;45797;47.466;9.486;2022-11-28T08:27:12;9.82;;;4.78;;
37891;SDS011;45797;47.466;9.486;2022-11-28T08:37:29;8.93;;;4.10;;
37891;SDS011;45797;47.466;9.486;2022-11-28T08:42:30;10.13;;;4.40;;
37891;SDS011;45797;47.466;9.486;2022-11-28T08:47:37;8.00;;;4.03;;
37891;SDS011;45797;47.466;9.486;2022-11-28T08:52:39;8.43;;;4.05;;
37891;SDS011;45797;47.466;9.486;2022-11-28T08:57:40;10.50;;;3.70;;
37891;SDS011;45797;47.466;9.486;2022-11-28T09:02:43;8.95;;;4.03;;
37891;SDS011;45797;47.466;9.486;2022-11-28T09:07:49;9.48;;;4.35;;
37891;SDS011;45797;47.466;9.486;2022-11-28T09:23:22;8.77;;;4.35;;
37891;SDS011;45797;47.466;9.486;2022-11-28T09:33:29;9.38;;;4.30;;
37891;SDS011;45797;47.466;9.486;2022-11-28T09:38:36;7.35;;;4.10;;
37891;SDS011;45797;47.466;9.486;2022-11-28T09:43:40;8.50;;;4.18;;
37891;SDS011;45797;47.466;9.486;2022-11-28T09:48:51;9.73;;;4.80;;
37891;SDS011;45797;47.466;9.486;2022-11-28T09:54:12;8.88;;;4.07;;
37891;SDS011;45797;47.466;9.486;2022-11-28T09:59:29;9.18;;;4.30;;
37891;SDS011;45797;47.466;9.486;2022-11-28T10:04:38;9.23;;;4.35;;
37891;SDS011;45797;47.466;9.486;2022-11-28T10:09:55;10.80;;;5.00;;
37891;SDS011;45797;47.466;9.486;2022-11-28T10:26:35;9.82;;;4.63;;
37891;SDS011;45797;47.466;9.486;2022-11-28T10:31:40;10.10;;;5.13;;
37891;SDS011;45797;47.466;9.486;2022-11-28T10:36:59;10.75;;;5.07;;
37891;SDS011;45797;47.466;9.486;2022-11-28T10:47:52;10.77;;;4.97;;
37891;SDS011;45797;47.466;9.486;2022-11-28T10:58:30;9.77;;;5.15;;
37891;SDS011;45797;47.466;9.486;2022-11-28T11:03:39;10.93;;;5.38;;
37891;SDS011;45797;47.466;9.486;2022-11-28T11:08:48;8.18;;;4.43;;
37891;SDS011;45797;47.466;9.486;2022-11-28T11:14:05;12.13;;;5.25;;
37891;SDS011;45797;47.466;9.486;2022-11-28T11:19:08;10.98;;;5.65;;
37891;SDS011;45797;47.466;9.486;2022-11-28T11:24:39;11.43;;;5.53;;
37891;SDS011;45797;47.466;9.486;2022-11-28T11:34:44;8.45;;;5.07;;
37891;SDS011;45797;47.466;9.486;2022-11-28T11:39:45;9.35;;;4.70;;
37891;SDS011;45797;47.466;9.486;2022-11-28T11:45:22;12.50;;;6.05;;
37891;SDS011;45797;47.466;9.486;2022-11-28T11:50:26;9.25;;;5.07;;
37891;SDS011;45797;47.466;9.486;2022-11-28T11:55:29;10.52;;;5.07;;
37891;SDS011;45797;47.466;9.486;2022-11-28T12:00:38;11.38;;;5.53;;
37891;SDS011;45797;47.466;9.486;2022-11-28T12:05:50;12.07;;;5.45;;
37891;SDS011;45797;47.466;9.486;2022-11-28T12:11:06;9.85;;;5.07;;
37891;SDS011;45797;47.466;9.486;2022-11-28T12:38:25;11.13;;;5.43;;
37891;SDS011;45797;47.466;9.486;2022-11-28T12:43:56;9.02;;;5.20;;
37891;SDS011;45797;47.466;9.486;2022-11-28T13:04:43;10.00;;;5.25;;
37891;SDS011;45797;47.466;9.486;2022-11-28T13:21:10;11.23;;;5.47;;
37891;SDS011;45797;47.466;9.486;2022-11-28T13:26:56;11.73;;;5.95;;
37891;SDS011;45797;47.466;9.486;2022-11-28T13:47:37;12.57;;;5.28;;
37891;SDS011;45797;47.466;9.486;2022-11-28T13:52:41;16.90;;;6.95;;
37891;SDS011;45797;47.466;9.486;2022-11-28T13:57:43;11.43;;;5.20;;
37891;SDS011;45797;47.466;9.486;2022-11-28T14:07:55;11.05;;;5.82;;
37891;SDS011;45797;47.466;9.486;2022-11-28T14:23:46;12.18;;;5.93;;
37891;SDS011;45797;47.466;9.486;2022-11-28T14:28:56;11.73;;;6.07;;
37891;SDS011;45797;47.466;9.486;2022-11-28T14:39:42;13.13;;;6.95;;
37891;SDS011;45797;47.466;9.486;2022-11-28T14:44:55;10.30;;;5.82;;
37891;SDS011;45797;47.466;9.486;2022-11-28T15:16:23;11.35;;;5.60;;
37891;SDS011;45797;47.466;9.486;2022-11-28T15:22:00;10.60;;;5.65;;
37891;SDS011;45797;47.466;9.486;2022-11-28T15:27:29;11.52;;;6.30;;
37891;SDS011;45797;47.466;9.486;2022-11-28T15:37:30;9.05;;;4.40;;
37891;SDS011;45797;47.466;9.486;2022-11-28T15:42:34;14.80;;;7.30;;
37891;SDS011;45797;47.466;9.486;2022-11-28T15:47:39;14.30;;;5.82;;
37891;SDS011;45797;47.466;9.486;2022-11-28T15:52:39;16.42;;;5.93;;
37891;SDS011;45797;47.466;9.486;2022-11-28T16:03:16;11.40;;;5.82;;
37891;SDS011;45797;47.466;9.486;2022-11-28T16:08:29;13.15;;;6.28;;
37891;SDS011;45797;47.466;9.486;2022-11-28T16:13:36;14.80;;;6.40;;
37891;SDS011;45797;47.466;9.486;2022-11-28T16:18:41;15.45;;;6.55;;
37891;SDS011;45797;47.466;9.486;2022-11-28T16:23:45;14.95;;;6.55;;
37891;SDS011;45797;47.466;9.486;2022-11-28T16:34:26;10.52;;;6.43;;
37891;SDS011;45797;47.466;9.486;2022-11-28T16:40:19;11.10;;;5.90;;
37891;SDS011;45797;47.466;9.486;2022-11-28T16:45:28;15.50;;;6.20;;
37891;SDS011;45797;47.466;9.486;2022-11-28T16:56:03;15.75;;;6.93;;
37891;SDS011;45797;47.466;9.486;2022-11-28T17:01:19;18.98;;;7.40;;
37891;SDS011;45797;47.466;9.486;2022-11-28T17:12:04;12.45;;;6.32;;
37891;SDS011;45797;47.466;9.486;2022-11-28T17:17:10;11.55;;;5.40;;
37891;SDS011;45797;47.466;9.486;2022-11-28T17:22:14;10.98;;;5.25;;
37891;SDS011;45797;47.466;9.486;2022-11-28T17:27:22;12.10;;;5.75;;
37891;SDS011;45797;47.466;9.486;2022-11-28T17:32:24;9.60;;;5.00;;
37891;SDS011;45797;47.466;9.486;2022-11-28T17:37:24;8.98;;;3.88;;
37891;SDS011;45797;47.466;9.486;2022-11-28T17:47:31;9.00;;;3.10;;
37891;SDS011;45797;47.466;9.486;2022-11-28T17:52:32;11.73;;;2.85;;
37891;SDS011;45797;47.466;9.486;2022-11-28T17:57:34;11.93;;;3.78;;
37891;SDS011;45797;47.466;9.486;2022-11-28T18:02:37;9.25;;;3.47;;
37891;SDS011;45797;47.466;9.486;2022-11-28T18:07:44;9.48;;;3.20;;
37891;SDS011;45797;47.466;9.486;2022-11-28T18:12:44;5.22;;;2.80;;
37891;SDS011;45797;47.466;9.486;2022-11-28T18:17:44;3.90;;;2.00;;
37891;SDS011;45797;47.466;9.486;2022-11-28T18:22:46;3.88;;;1.95;;
37891;SDS011;45797;47.466;9.486;2022-11-28T18:27:47;3.85;;;2.00;;
37891;SDS011;45797;47.466;9.486;2022-11-28T18:32:49;4.68;;;1.90;;
37891;SDS011;45797;47.466;9.486;2022-11-28T18:37:49;6.03;;;2.42;;
37891;SDS011;45797;47.466;9.486;2022-11-28T18:42:51;4.95;;;2.20;;
37891;SDS011;45797;47.466;9.486;2022-11-28T18:47:52;4.72;;;2.67;;
37891;SDS011;45797;47.466;9.486;2022-11-28T18:58:13;5.72;;;1.98;;
37891;SDS011;45797;47.466;9.486;2022-11-28T19:03:15;4.00;;;1.77;;
37891;SDS011;45797;47.466;9.486;2022-11-28T19:08:15;4.13;;;2.05;;
37891;SDS011;45797;47.466;9.486;2022-11-28T19:13:19;4.95;;;2.67;;
37891;SDS011;45797;47.466;9.486;2022-11-28T19:18:19;3.13;;;1.80;;
37891;SDS011;45797;47.466;9.486;2022-11-28T19:23:21;3.72;;;1.73;;
37891;SDS011;45797;47.466;9.486;2022-11-28T19:28:23;5.30;;;2.08;;
37891;SDS011;45797;47.466;9.486;2022-11-28T19:33:41;3.95;;;2.17;;
37891;SDS011;45797;47.466;9.486;2022-11-28T19:38:42;3.92;;;2.13;;
37891;SDS011;45797;47.466;9.486;2022-11-28T19:43:43;3.10;;;1.65;;
37891;SDS011;45797;47.466;9.486;2022-11-28T19:48:45;3.40;;;1.73;;
37891;SDS011;45797;47.466;9.486;2022-11-28T19:53:49;6.18;;;2.65;;
37891;SDS011;45797;47.466;9.486;2022-11-28T19:58:52;3.47;;;1.65;;
37891;SDS011;45797;47.466;9.486;2022-11-28T20:03:53;4.05;;;1.75;;
37891;SDS011;45797;47.466;9.486;2022-11-28T20:08:54;5.25;;;2.20;;
37891;SDS011;45797;47.466;9.486;2022-11-28T20:14:09;2.58;;;1.45;;
37891;SDS011;45797;47.466;9.486;2022-11-28T20:19:30;5.18;;;1.45;;
37891;SDS011;45797;47.466;9.486;2022-11-28T20:29:36;3.00;;;1.63;;
37891;SDS011;45797;47.466;9.486;2022-11-28T20:34:36;3.80;;;1.80;;
37891;SDS011;45797;47.466;9.486;2022-11-28T20:39:44;4.70;;;1.83;;
37891;SDS011;45797;47.466;9.486;2022-11-28T20:44:49;5.07;;;1.98;;
37891;SDS011;45797;47.466;9.486;2022-11-28T20:49:52;3.85;;;2.03;;
37891;SDS011;45797;47.466;9.486;2022-11-28T20:54:52;5.85;;;2.55;;
37891;SDS011;45797;47.466;9.486;2022-11-28T21:00:07;5.57;;;2.45;;
37891;SDS011;45797;47.466;9.486;2022-11-28T21:05:09;5.60;;;2.08;;
37891;SDS011;45797;47.466;9.486;2022-11-28T21:10:10;5.07;;;2.33;;
37891;SDS011;45797;47.466;9.486;2022-11-28T21:20:29;4.68;;;2.53;;
37891;SDS011;45797;47.466;9.486;2022-11-28T21:25:37;5.15;;;2.08;;
37891;SDS011;45797;47.466;9.486;2022-11-28T21:30:44;3.25;;;1.55;;
37891;SDS011;45797;47.466;9.486;2022-11-28T21:35:45;4.03;;;1.98;;
37891;SDS011;45797;47.466;9.486;2022-11-28T21:40:53;4.05;;;1.85;;
37891;SDS011;45797;47.466;9.486;2022-11-28T21:45:54;4.25;;;2.00;;
37891;SDS011;45797;47.466;9.486;2022-11-28T21:58:21;4.65;;;1.88;;
37891;SDS011;45797;47.466;9.486;2022-11-28T22:08:29;5.15;;;1.83;;
37891;SDS011;45797;47.466;9.486;2022-11-28T22:18:35;5.28;;;2.20;;
37891;SDS011;45797;47.466;9.486;2022-11-28T22:28:40;2.97;;;1.70;;
37891;SDS011;45797;47.466;9.486;2022-11-28T22:33:42;2.38;;;1.50;;
37891;SDS011;45797;47.466;9.486;2022-11-28T22:38:52;2.53;;;1.50;;
37891;SDS011;45797;47.466;9.486;2022-11-28T22:43:55;4.35;;;1.77;;
37891;SDS011;45797;47.466;9.486;2022-11-28T22:49:14;3.55;;;2.10;;
37891;SDS011;45797;47.466;9.486;2022-11-28T22:54:21;5.93;;;2.70;;
37891;SDS011;45797;47.466;9.486;2022-11-28T22:59:34;3.90;;;2.13;;
37891;SDS011;45797;47.466;9.486;2022-11-28T23:04:38;4.55;;;2.20;;
37891;SDS011;45797;47.466;9.486;2022-11-28T23:09:38;3.22;;;2.05;;
37891;SDS011;45797;47.466;9.486;2022-11-28T23:14:40;3.70;;;2.08;;
37891;SDS011;45797;47.466;9.486;2022-11-28T23:19:40;5.60;;;1.75;;
37891;SDS011;45797;47.466;9.486;2022-11-28T23:29:48;4.25;;;2.10;;
37891;SDS011;45797;47.466;9.486;2022-11-28T23:40:03;3.33;;;1.70;;
37891;SDS011;45797;47.466;9.486;2022-11-28T23:45:04;3.35;;;1.75;;
37891;SDS011;45797;47.466;9.486;2022-11-28T23:50:06;3.17;;;1.50;;
37891;SDS011;45797;47.466;9.486;2022-11-28T23:55:08;2.70;;;1.40;;
